sensor_id;sensor_type;location;lat;lon;timestamp;pressure;altitude;pressure_sealevel;temperature;humidity
58622;BME280;44389;51.578;5.456;2024-02-26T00:01:50;99698.75;;;4.95;100.00
58622;BME280;44389;51.578;5.456;2024-02-26T00:04:15;99702.81;;;4.88;100.00
58622;BME280;44389;51.578;5.456;2024-02-26T00:06:41;99706.22;;;4.89;100.00
58622;BME280;44389;51.578;5.456;2024-02-26T00:09:07;99700.00;;;4.81;100.00
58622;BME280;44389;51.578;5.456;2024-02-26T00:11:32;99705.72;;;4.75;100.00
58622;BME280;44389;51.578;5.456;2024-02-26T00:13:57;99694.50;;;4.70;100.00
58622;BME280;44389;51.578;5.456;2024-02-26T00:16:23;99705.31;;;4.63;100.00
58622;BME280;44389;51.578;5.456;2024-02-26T00:18:49;99702.66;;;4.59;100.00
58622;BME280;44389;51.578;5.456;2024-02-26T00:21:14;99698.47;;;4.61;100.00
58622;BME280;44389;51.578;5.456;2024-02-26T00:23:39;99705.16;;;4.58;100.00
58622;BME280;44389;51.578;5.456;2024-02-26T00:26:04;99703.41;;;4.57;100.00
58622;BME280;44389;51.578;5.456;2024-02-26T00:28:30;99699.06;;;4.54;100.00
58622;BME280;44389;51.578;5.456;2024-02-26T00:30:55;99700.72;;;4.52;100.00
58622;BME280;44389;51.578;5.456;2024-02-26T00:33:21;99706.63;;;4.51;100.00
58622;BME280;44389;51.578;5.456;2024-02-26T00:35:47;99703.97;;;4.48;100.00
58622;BME280;44389;51.578;5.456;2024-02-26T00:38:13;99702.09;;;4.44;100.00
58622;BME280;44389;51.578;5.456;2024-02-26T00:40:38;99704.81;;;4.49;100.00
58622;BME280;44389;51.578;5.456;2024-02-26T00:43:03;99701.25;;;4.43;100.00
58622;BME280;44389;51.578;5.456;2024-02-26T00:45:29;99698.66;;;4.42;100.00
58622;BME280;44389;51.578;5.456;2024-02-26T00:47:54;99701.19;;;4.42;100.00
58622;BME280;44389;51.578;5.456;2024-02-26T00:50:19;99695.97;;;4.39;100.00
58622;BME280;44389;51.578;5.456;2024-02-26T00:52:44;99691.69;;;4.38;100.00
58622;BME280;44389;51.578;5.456;2024-02-26T00:55:10;99683.91;;;4.35;100.00
58622;BME280;44389;51.578;5.456;2024-02-26T00:57:35;99679.63;;;4.34;100.00
58622;BME280;44389;51.578;5.456;2024-02-26T01:00:00;99688.94;;;4.32;100.00
58622;BME280;44389;51.578;5.456;2024-02-26T01:02:26;99680.38;;;4.31;100.00
58622;BME280;44389;51.578;5.456;2024-02-26T01:04:51;99684.63;;;4.31;100.00
58622;BME280;44389;51.578;5.456;2024-02-26T01:07:17;99683.88;;;4.33;100.00
58622;BME280;44389;51.578;5.456;2024-02-26T01:09:42;99681.38;;;4.35;100.00
58622;BME280;44389;51.578;5.456;2024-02-26T01:12:08;99683.00;;;4.33;100.00
58622;BME280;44389;51.578;5.456;2024-02-26T01:14:33;99690.66;;;4.33;100.00
58622;BME280;44389;51.578;5.456;2024-02-26T01:16:59;99694.88;;;4.32;100.00
58622;BME280;44389;51.578;5.456;2024-02-26T01:19:24;99694.94;;;4.34;100.00
58622;BME280;44389;51.578;5.456;2024-02-26T01:21:49;99695.91;;;4.37;100.00
58622;BME280;44389;51.578;5.456;2024-02-26T01:24:14;99693.38;;;4.37;100.00
58622;BME280;44389;51.578;5.456;2024-02-26T01:26:40;99694.25;;;4.38;100.00
58622;BME280;44389;51.578;5.456;2024-02-26T01:29:06;99701.91;;;4.38;100.00
58622;BME280;44389;51.578;5.456;2024-02-26T01:31:31;99704.47;;;4.38;100.00
58622;BME280;44389;51.578;5.456;2024-02-26T01:33:56;99708.72;;;4.39;100.00
58622;BME280;44389;51.578;5.456;2024-02-26T01:36:21;99717.34;;;4.42;100.00
58622;BME280;44389;51.578;5.456;2024-02-26T01:38:47;99714.06;;;4.45;100.00
58622;BME280;44389;51.578;5.456;2024-02-26T01:41:15;99713.16;;;4.43;100.00
58622;BME280;44389;51.578;5.456;2024-02-26T01:43:40;99711.34;;;4.40;100.00
58622;BME280;44389;51.578;5.456;2024-02-26T01:46:07;99717.34;;;4.42;100.00
58622;BME280;44389;51.578;5.456;2024-02-26T01:48:36;99719.16;;;4.45;100.00
58622;BME280;44389;51.578;5.456;2024-02-26T01:51:01;99719.06;;;4.42;100.00
58622;BME280;44389;51.578;5.456;2024-02-26T01:53:27;99720.66;;;4.40;100.00
58622;BME280;44389;51.578;5.456;2024-02-26T01:55:52;99728.31;;;4.40;100.00
58622;BME280;44389;51.578;5.456;2024-02-26T01:58:18;99733.31;;;4.37;100.00
58622;BME280;44389;51.578;5.456;2024-02-26T02:00:43;99730.66;;;4.34;100.00
58622;BME280;44389;51.578;5.456;2024-02-26T02:03:08;99731.41;;;4.31;100.00
58622;BME280;44389;51.578;5.456;2024-02-26T02:05:34;99734.69;;;4.28;100.00
58622;BME280;44389;51.578;5.456;2024-02-26T02:08:07;99732.06;;;4.25;100.00
58622;BME280;44389;51.578;5.456;2024-02-26T02:10:32;99727.72;;;4.23;100.00
58622;BME280;44389;51.578;5.456;2024-02-26T02:12:57;99730.16;;;4.20;100.00
58622;BME280;44389;51.578;5.456;2024-02-26T02:15:23;99729.22;;;4.18;100.00
58622;BME280;44389;51.578;5.456;2024-02-26T02:17:48;99740.16;;;4.15;100.00
58622;BME280;44389;51.578;5.456;2024-02-26T02:20:17;99733.22;;;4.11;100.00
58622;BME280;44389;51.578;5.456;2024-02-26T02:22:44;99724.63;;;4.09;100.00
58622;BME280;44389;51.578;5.456;2024-02-26T02:25:10;99727.09;;;4.06;100.00
58622;BME280;44389;51.578;5.456;2024-02-26T02:27:35;99719.31;;;4.03;100.00
58622;BME280;44389;51.578;5.456;2024-02-26T02:30:01;99724.28;;;4.00;100.00
58622;BME280;44389;51.578;5.456;2024-02-26T02:32:27;99725.06;;;3.97;100.00
58622;BME280;44389;51.578;5.456;2024-02-26T02:34:54;99727.53;;;3.95;100.00
58622;BME280;44389;51.578;5.456;2024-02-26T02:37:19;99728.31;;;3.93;100.00
58622;BME280;44389;51.578;5.456;2024-02-26T02:39:45;99718.97;;;3.93;100.00
58622;BME280;44389;51.578;5.456;2024-02-26T02:42:10;99721.47;;;3.92;100.00
58622;BME280;44389;51.578;5.456;2024-02-26T02:44:35;99730.78;;;3.91;100.00
58622;BME280;44389;51.578;5.456;2024-02-26T02:47:01;99733.25;;;3.90;100.00
58622;BME280;44389;51.578;5.456;2024-02-26T02:49:26;99734.00;;;3.87;100.00
58622;BME280;44389;51.578;5.456;2024-02-26T02:51:51;99732.22;;;3.85;100.00
58622;BME280;44389;51.578;5.456;2024-02-26T02:54:19;99744.97;;;3.85;100.00
58622;BME280;44389;51.578;5.456;2024-02-26T02:56:44;99734.72;;;3.83;100.00
58622;BME280;44389;51.578;5.456;2024-02-26T02:59:10;99746.59;;;3.83;100.00
58622;BME280;44389;51.578;5.456;2024-02-26T03:01:35;99738.91;;;3.81;100.00
58622;BME280;44389;51.578;5.456;2024-02-26T03:04:00;99738.91;;;3.81;100.00
58622;BME280;44389;51.578;5.456;2024-02-26T03:06:25;99736.25;;;3.79;100.00
58622;BME280;44389;51.578;5.456;2024-02-26T03:08:52;99740.50;;;3.79;100.00
58622;BME280;44389;51.578;5.456;2024-02-26T03:11:18;99737.00;;;3.77;100.00
58622;BME280;44389;51.578;5.456;2024-02-26T03:13:44;99737.84;;;3.76;100.00
58622;BME280;44389;51.578;5.456;2024-02-26T03:16:09;99747.09;;;3.74;100.00
58622;BME280;44389;51.578;5.456;2024-02-26T03:18:34;99743.69;;;3.73;100.00
58622;BME280;44389;51.578;5.456;2024-02-26T03:21:00;99749.59;;;3.72;100.00
58622;BME280;44389;51.578;5.456;2024-02-26T03:23:25;99748.69;;;3.72;100.00
58622;BME280;44389;51.578;5.456;2024-02-26T03:25:51;99748.69;;;3.72;100.00
58622;BME280;44389;51.578;5.456;2024-02-26T03:28:16;99746.84;;;3.68;100.00
58622;BME280;44389;51.578;5.456;2024-02-26T03:30:41;99746.84;;;3.68;100.00
58622;BME280;44389;51.578;5.456;2024-02-26T03:33:06;99747.75;;;3.68;100.00
58622;BME280;44389;51.578;5.456;2024-02-26T03:35:32;99747.75;;;3.68;100.00
58622;BME280;44389;51.578;5.456;2024-02-26T03:37:57;99746.84;;;3.68;100.00
58622;BME280;44389;51.578;5.456;2024-02-26T03:40:22;99751.09;;;3.67;100.00
58622;BME280;44389;51.578;5.456;2024-02-26T03:42:48;99748.50;;;3.66;100.00
58622;BME280;44389;51.578;5.456;2024-02-26T03:45:13;99743.44;;;3.67;100.00
58622;BME280;44389;51.578;5.456;2024-02-26T03:47:38;99751.03;;;3.66;100.00
58622;BME280;44389;51.578;5.456;2024-02-26T03:50:07;99743.41;;;3.66;100.00
58622;BME280;44389;51.578;5.456;2024-02-26T03:52:32;99753.59;;;3.66;100.00
58622;BME280;44389;51.578;5.456;2024-02-26T03:54:58;99747.59;;;3.65;100.00
58622;BME280;44389;51.578;5.456;2024-02-26T03:57:23;99748.50;;;3.66;100.00
58622;BME280;44389;51.578;5.456;2024-02-26T03:59:49;99745.84;;;3.64;100.00
58622;BME280;44389;51.578;5.456;2024-02-26T04:02:14;99753.59;;;3.66;100.00
58622;BME280;44389;51.578;5.456;2024-02-26T04:04:39;99757.78;;;3.65;100.00
58622;BME280;44389;51.578;5.456;2024-02-26T04:07:04;99756.13;;;3.66;100.00
58622;BME280;44389;51.578;5.456;2024-02-26T04:09:33;99762.03;;;3.65;100.00
58622;BME280;44389;51.578;5.456;2024-02-26T04:11:58;99761.22;;;3.66;100.00
58622;BME280;44389;51.578;5.456;2024-02-26T04:14:24;99754.38;;;3.65;100.00
58622;BME280;44389;51.578;5.456;2024-02-26T04:16:49;99759.44;;;3.63;100.00
58622;BME280;44389;51.578;5.456;2024-02-26T04:19:17;99766.19;;;3.62;100.00
58622;BME280;44389;51.578;5.456;2024-02-26T04:21:42;99763.63;;;3.62;100.00
58622;BME280;44389;51.578;5.456;2024-02-26T04:24:08;99760.19;;;3.60;100.00
58622;BME280;44389;51.578;5.456;2024-02-26T04:26:33;99761.84;;;3.60;100.00
58622;BME280;44389;51.578;5.456;2024-02-26T04:28:58;99766.06;;;3.59;100.00
58622;BME280;44389;51.578;5.456;2024-02-26T04:31:24;99759.22;;;3.58;100.00
58622;BME280;44389;51.578;5.456;2024-02-26T04:33:49;99763.38;;;3.56;100.00
58622;BME280;44389;51.578;5.456;2024-02-26T04:36:15;99771.88;;;3.55;100.00
58622;BME280;44389;51.578;5.456;2024-02-26T04:38:41;99764.13;;;3.54;100.00
58622;BME280;44389;51.578;5.456;2024-02-26T04:41:07;99772.59;;;3.53;100.00
58622;BME280;44389;51.578;5.456;2024-02-26T04:43:32;99773.34;;;3.50;100.00
58622;BME280;44389;51.578;5.456;2024-02-26T04:45:57;99774.16;;;3.49;100.00
58622;BME280;44389;51.578;5.456;2024-02-26T04:48:23;99771.59;;;3.49;100.00
58622;BME280;44389;51.578;5.456;2024-02-26T04:50:48;99768.13;;;3.47;100.00
58622;BME280;44389;51.578;5.456;2024-02-26T04:53:13;99774.94;;;3.48;100.00
58622;BME280;44389;51.578;5.456;2024-02-26T04:55:39;99774.09;;;3.48;100.00
58622;BME280;44389;51.578;5.456;2024-02-26T04:58:04;99774.09;;;3.48;100.00
58622;BME280;44389;51.578;5.456;2024-02-26T05:00:29;99789.38;;;3.48;100.00
58622;BME280;44389;51.578;5.456;2024-02-26T05:02:56;99784.22;;;3.46;100.00
58622;BME280;44389;51.578;5.456;2024-02-26T05:05:21;99792.72;;;3.46;100.00
58622;BME280;44389;51.578;5.456;2024-02-26T05:07:47;99790.25;;;3.48;100.00
58622;BME280;44389;51.578;5.456;2024-02-26T05:10:12;99785.13;;;3.48;100.00
58622;BME280;44389;51.578;5.456;2024-02-26T05:12:37;99785.13;;;3.48;100.00
58622;BME280;44389;51.578;5.456;2024-02-26T05:15:03;99790.28;;;3.50;100.00
58622;BME280;44389;51.578;5.456;2024-02-26T05:17:29;99784.34;;;3.49;100.00
58622;BME280;44389;51.578;5.456;2024-02-26T05:19:54;99778.44;;;3.50;100.00
58622;BME280;44389;51.578;5.456;2024-02-26T05:22:19;99776.81;;;3.52;100.00
58622;BME280;44389;51.578;5.456;2024-02-26T05:24:45;99781.91;;;3.52;100.00
58622;BME280;44389;51.578;5.456;2024-02-26T05:27:10;99781.09;;;3.53;100.00
58622;BME280;44389;51.578;5.456;2024-02-26T05:29:37;99787.88;;;3.53;100.00
58622;BME280;44389;51.578;5.456;2024-02-26T05:32:02;99790.50;;;3.54;100.00
58622;BME280;44389;51.578;5.456;2024-02-26T05:34:27;99798.94;;;3.53;100.00
58622;BME280;44389;51.578;5.456;2024-02-26T05:36:55;99787.88;;;3.53;100.00
58622;BME280;44389;51.578;5.456;2024-02-26T05:39:20;99797.19;;;3.52;100.00
58622;BME280;44389;51.578;5.456;2024-02-26T05:41:45;99810.75;;;3.51;100.00
58622;BME280;44389;51.578;5.456;2024-02-26T05:44:11;99803.91;;;3.50;100.00
58622;BME280;44389;51.578;5.456;2024-02-26T05:46:36;99799.69;;;3.51;100.00
58622;BME280;44389;51.578;5.456;2024-02-26T05:49:02;99809.88;;;3.51;100.00
58622;BME280;44389;51.578;5.456;2024-02-26T05:51:28;99813.31;;;3.51;100.00
58622;BME280;44389;51.578;5.456;2024-02-26T05:53:53;99816.78;;;3.53;100.00
58622;BME280;44389;51.578;5.456;2024-02-26T05:56:22;99820.19;;;3.54;100.00
58622;BME280;44389;51.578;5.456;2024-02-26T05:58:47;99826.16;;;3.54;100.00
58622;BME280;44389;51.578;5.456;2024-02-26T06:01:13;99826.16;;;3.54;100.00
58622;BME280;44389;51.578;5.456;2024-02-26T06:03:38;99826.22;;;3.56;100.00
58622;BME280;44389;51.578;5.456;2024-02-26T06:06:04;99830.38;;;3.54;100.00
58622;BME280;44389;51.578;5.456;2024-02-26T06:08:29;99833.81;;;3.54;100.00
58622;BME280;44389;51.578;5.456;2024-02-26T06:10:55;99834.59;;;3.53;100.00
58622;BME280;44389;51.578;5.456;2024-02-26T06:13:20;99836.25;;;3.51;100.00
58622;BME280;44389;51.578;5.456;2024-02-26T06:15:45;99837.84;;;3.49;100.00
58622;BME280;44389;51.578;5.456;2024-02-26T06:18:11;99850.56;;;3.49;100.00
58622;BME280;44389;51.578;5.456;2024-02-26T06:20:36;99849.63;;;3.47;100.00
58622;BME280;44389;51.578;5.456;2024-02-26T06:23:01;99853.00;;;3.46;100.00
58622;BME280;44389;51.578;5.456;2024-02-26T06:25:27;99848.72;;;3.45;100.00
58622;BME280;44389;51.578;5.456;2024-02-26T06:27:52;99857.16;;;3.44;100.00
58622;BME280;44389;51.578;5.456;2024-02-26T06:30:17;99857.94;;;3.43;100.00
58622;BME280;44389;51.578;5.456;2024-02-26T06:32:42;99866.41;;;3.42;100.00
58622;BME280;44389;51.578;5.456;2024-02-26T06:35:08;99873.13;;;3.40;100.00
58622;BME280;44389;51.578;5.456;2024-02-26T06:37:35;99869.63;;;3.38;100.00
58622;BME280;44389;51.578;5.456;2024-02-26T06:40:01;99879.81;;;3.38;100.00
58622;BME280;44389;51.578;5.456;2024-02-26T06:42:29;99869.56;;;3.36;100.00
58622;BME280;44389;51.578;5.456;2024-02-26T06:44:55;99886.53;;;3.36;100.00
58622;BME280;44389;51.578;5.456;2024-02-26T06:47:20;99880.53;;;3.35;100.00
58622;BME280;44389;51.578;5.456;2024-02-26T06:49:46;99881.34;;;3.34;100.00
58622;BME280;44389;51.578;5.456;2024-02-26T06:52:11;99892.38;;;3.33;100.00
58622;BME280;44389;51.578;5.456;2024-02-26T06:54:36;99899.13;;;3.33;100.00
58622;BME280;44389;51.578;5.456;2024-02-26T06:57:02;99894.81;;;3.32;100.00
58622;BME280;44389;51.578;5.456;2024-02-26T06:59:27;99892.22;;;3.30;100.00
58622;BME280;44389;51.578;5.456;2024-02-26T07:01:53;99887.06;;;3.28;100.00
58622;BME280;44389;51.578;5.456;2024-02-26T07:04:20;99893.84;;;3.28;100.00
58622;BME280;44389;51.578;5.456;2024-02-26T07:06:45;99907.44;;;3.28;100.00
58622;BME280;44389;51.578;5.456;2024-02-26T07:09:11;99907.44;;;3.28;100.00
58622;BME280;44389;51.578;5.456;2024-02-26T07:11:37;99906.63;;;3.29;100.00
58622;BME280;44389;51.578;5.456;2024-02-26T07:14:02;99915.00;;;3.27;100.00
58622;BME280;44389;51.578;5.456;2024-02-26T07:16:28;99924.41;;;3.28;100.00
58622;BME280;44389;51.578;5.456;2024-02-26T07:18:53;99926.94;;;3.28;100.00
58622;BME280;44389;51.578;5.456;2024-02-26T07:21:19;99921.91;;;3.29;100.00
58622;BME280;44389;51.578;5.456;2024-02-26T07:23:44;99927.00;;;3.29;100.00
58622;BME280;44389;51.578;5.456;2024-02-26T07:26:10;99931.31;;;3.31;100.00
58622;BME280;44389;51.578;5.456;2024-02-26T07:28:37;99933.75;;;3.29;100.00
58622;BME280;44389;51.578;5.456;2024-02-26T07:31:02;99938.94;;;3.31;100.00
58622;BME280;44389;51.578;5.456;2024-02-26T07:33:28;99936.47;;;3.32;100.00
58622;BME280;44389;51.578;5.456;2024-02-26T07:35:53;99938.22;;;3.33;100.00
58622;BME280;44389;51.578;5.456;2024-02-26T07:38:19;99942.47;;;3.34;100.00
58622;BME280;44389;51.578;5.456;2024-02-26T07:40:44;99949.31;;;3.35;100.00
58622;BME280;44389;51.578;5.456;2024-02-26T07:43:09;99951.13;;;3.38;100.00
58622;BME280;44389;51.578;5.456;2024-02-26T07:45:35;99956.38;;;3.41;100.00
58622;BME280;44389;51.578;5.456;2024-02-26T07:48:01;99961.47;;;3.41;100.00
58622;BME280;44389;51.578;5.456;2024-02-26T07:50:26;99969.22;;;3.44;100.00
58622;BME280;44389;51.578;5.456;2024-02-26T07:52:52;99963.19;;;3.42;100.00
58622;BME280;44389;51.578;5.456;2024-02-26T07:55:18;99973.47;;;3.43;100.00
58622;BME280;44389;51.578;5.456;2024-02-26T07:57:44;99979.41;;;3.44;100.00
58622;BME280;44389;51.578;5.456;2024-02-26T08:00:10;99985.31;;;3.43;100.00
58622;BME280;44389;51.578;5.456;2024-02-26T08:02:38;99981.84;;;3.41;100.00
58622;BME280;44389;51.578;5.456;2024-02-26T08:05:04;99987.00;;;3.42;100.00
58622;BME280;44389;51.578;5.456;2024-02-26T08:07:30;99979.41;;;3.44;100.00
58622;BME280;44389;51.578;5.456;2024-02-26T08:09:55;99986.09;;;3.42;100.00
58622;BME280;44389;51.578;5.456;2024-02-26T08:12:20;99989.56;;;3.42;100.00
58622;BME280;44389;51.578;5.456;2024-02-26T08:14:46;100002.34;;;3.44;100.00
58622;BME280;44389;51.578;5.456;2024-02-26T08:17:11;99997.25;;;3.44;100.00
58622;BME280;44389;51.578;5.456;2024-02-26T08:19:36;100004.09;;;3.45;100.00
58622;BME280;44389;51.578;5.456;2024-02-26T08:22:02;100013.50;;;3.46;100.00
58622;BME280;44389;51.578;5.456;2024-02-26T08:24:27;100013.50;;;3.46;100.00
58622;BME280;44389;51.578;5.456;2024-02-26T08:26:53;100017.75;;;3.47;100.00
58622;BME280;44389;51.578;5.456;2024-02-26T08:29:18;100016.97;;;3.48;100.00
58622;BME280;44389;51.578;5.456;2024-02-26T08:31:44;100020.41;;;3.49;100.00
58622;BME280;44389;51.578;5.456;2024-02-26T08:34:09;100025.50;;;3.49;100.00
58622;BME280;44389;51.578;5.456;2024-02-26T08:36:34;100029.69;;;3.48;100.00
58622;BME280;44389;51.578;5.456;2024-02-26T08:39:00;100034.78;;;3.48;100.00
58622;BME280;44389;51.578;5.456;2024-02-26T08:41:25;100032.25;;;3.48;100.00
58622;BME280;44389;51.578;5.456;2024-02-26T08:43:51;100033.19;;;3.50;100.00
58622;BME280;44389;51.578;5.456;2024-02-26T08:46:16;100038.28;;;3.50;100.00
58622;BME280;44389;51.578;5.456;2024-02-26T08:48:41;100028.03;;;3.49;100.00
58622;BME280;44389;51.578;5.456;2024-02-26T08:51:07;100044.19;;;3.49;100.00
58622;BME280;44389;51.578;5.456;2024-02-26T08:53:33;100043.38;;;3.50;100.00
58622;BME280;44389;51.578;5.456;2024-02-26T08:55:59;100049.28;;;3.49;100.00
58622;BME280;44389;51.578;5.456;2024-02-26T08:58:24;100051.94;;;3.52;100.00
58622;BME280;44389;51.578;5.456;2024-02-26T09:00:52;100053.69;;;3.53;100.00
58622;BME280;44389;51.578;5.456;2024-02-26T09:03:17;100051.28;;;3.56;100.00
58622;BME280;44389;51.578;5.456;2024-02-26T09:05:43;100055.59;;;3.57;100.00
58622;BME280;44389;51.578;5.456;2024-02-26T09:08:08;100058.28;;;3.60;100.00
58622;BME280;44389;51.578;5.456;2024-02-26T09:10:34;100066.78;;;3.61;100.00
58622;BME280;44389;51.578;5.456;2024-02-26T09:12:59;100070.28;;;3.63;100.00
58622;BME280;44389;51.578;5.456;2024-02-26T09:15:24;100070.28;;;3.63;100.00
58622;BME280;44389;51.578;5.456;2024-02-26T09:17:49;100071.16;;;3.63;100.00
58622;BME280;44389;51.578;5.456;2024-02-26T09:20:15;100072.00;;;3.64;100.00
58622;BME280;44389;51.578;5.456;2024-02-26T09:22:45;100078.06;;;3.66;100.00
58622;BME280;44389;51.578;5.456;2024-02-26T09:25:10;100081.47;;;3.67;100.00
58622;BME280;44389;51.578;5.456;2024-02-26T09:27:35;100086.66;;;3.68;100.00
58622;BME280;44389;51.578;5.456;2024-02-26T09:30:01;100083.22;;;3.68;100.00
58622;BME280;44389;51.578;5.456;2024-02-26T09:32:26;100082.50;;;3.70;100.00
58622;BME280;44389;51.578;5.456;2024-02-26T09:34:51;100094.44;;;3.71;100.00
58622;BME280;44389;51.578;5.456;2024-02-26T09:37:17;100105.47;;;3.72;100.00
58622;BME280;44389;51.578;5.456;2024-02-26T09:39:42;100102.00;;;3.70;100.00
58622;BME280;44389;51.578;5.456;2024-02-26T09:42:09;100105.44;;;3.70;100.00
58622;BME280;44389;51.578;5.456;2024-02-26T09:44:36;100107.97;;;3.70;100.00
58622;BME280;44389;51.578;5.456;2024-02-26T09:47:05;100114.75;;;3.70;100.00
58622;BME280;44389;51.578;5.456;2024-02-26T09:49:33;100116.50;;;3.71;100.00
58622;BME280;44389;51.578;5.456;2024-02-26T09:52:00;100123.31;;;3.72;100.00
58622;BME280;44389;51.578;5.456;2024-02-26T09:54:27;100126.75;;;3.72;100.00
58622;BME280;44389;51.578;5.456;2024-02-26T09:56:54;100127.56;;;3.71;100.00
58622;BME280;44389;51.578;5.456;2024-02-26T09:59:23;100137.03;;;3.74;100.00
58622;BME280;44389;51.578;5.456;2024-02-26T10:01:50;100137.03;;;3.74;100.00
58622;BME280;44389;51.578;5.456;2024-02-26T10:04:16;100142.06;;;3.72;100.00
58622;BME280;44389;51.578;5.456;2024-02-26T10:06:41;100141.31;;;3.75;100.00
58622;BME280;44389;51.578;5.456;2024-02-26T10:09:09;100146.41;;;3.75;100.00
58622;BME280;44389;51.578;5.456;2024-02-26T10:11:37;100166.06;;;3.77;100.00
58622;BME280;44389;51.578;5.456;2024-02-26T10:14:08;100161.84;;;3.78;100.00
58622;BME280;44389;51.578;5.456;2024-02-26T10:16:33;100164.44;;;3.79;100.00
58622;BME280;44389;51.578;5.456;2024-02-26T10:18:59;100170.56;;;3.83;100.00
58622;BME280;44389;51.578;5.456;2024-02-26T10:21:25;100171.38;;;3.82;100.00
58622;BME280;44389;51.578;5.456;2024-02-26T10:23:50;100175.59;;;3.82;100.00
58622;BME280;44389;51.578;5.456;2024-02-26T10:26:16;100173.84;;;3.81;100.00
58622;BME280;44389;51.578;5.456;2024-02-26T10:28:44;100185.88;;;3.83;100.00
58622;BME280;44389;51.578;5.456;2024-02-26T10:31:10;100191.13;;;3.86;100.00
58622;BME280;44389;51.578;5.456;2024-02-26T10:33:36;100192.72;;;3.84;100.00
58622;BME280;44389;51.578;5.456;2024-02-26T10:36:03;100201.16;;;3.83;100.00
58622;BME280;44389;51.578;5.456;2024-02-26T10:38:29;100196.06;;;3.83;100.00
58622;BME280;44389;51.578;5.456;2024-02-26T10:40:55;100207.22;;;3.85;100.00
58622;BME280;44389;51.578;5.456;2024-02-26T10:43:20;100211.53;;;3.86;100.00
58622;BME280;44389;51.578;5.456;2024-02-26T10:45:45;100219.97;;;3.85;100.00
58622;BME280;44389;51.578;5.456;2024-02-26T10:48:13;100224.91;;;3.82;100.00
58622;BME280;44389;51.578;5.456;2024-02-26T10:50:40;100229.19;;;3.83;100.00
58622;BME280;44389;51.578;5.456;2024-02-26T10:53:13;100231.75;;;3.83;100.00
58622;BME280;44389;51.578;5.456;2024-02-26T10:55:42;100228.28;;;3.81;100.00
58622;BME280;44389;51.578;5.456;2024-02-26T10:58:08;100231.75;;;3.83;100.00
58622;BME280;44389;51.578;5.456;2024-02-26T11:00:34;100234.25;;;3.82;100.00
58622;BME280;44389;51.578;5.456;2024-02-26T11:03:02;100248.50;;;3.78;100.00
58622;BME280;44389;51.578;5.456;2024-02-26T11:05:28;100247.56;;;3.76;100.00
58622;BME280;44389;51.578;5.456;2024-02-26T11:07:54;100250.13;;;3.76;100.00
58622;BME280;44389;51.578;5.456;2024-02-26T11:10:21;100240.78;;;3.76;100.00
58622;BME280;44389;51.578;5.456;2024-02-26T11:12:51;100253.59;;;3.78;100.00
58622;BME280;44389;51.578;5.456;2024-02-26T11:15:16;100245.16;;;3.79;100.00
58622;BME280;44389;51.578;5.456;2024-02-26T11:17:42;100261.25;;;3.78;100.00
58622;BME280;44389;51.578;5.456;2024-02-26T11:20:10;100250.25;;;3.79;100.00
58622;BME280;44389;51.578;5.456;2024-02-26T11:22:38;100256.38;;;3.83;100.00
58622;BME280;44389;51.578;5.456;2024-02-26T11:25:03;100252.94;;;3.82;100.00
58622;BME280;44389;51.578;5.456;2024-02-26T11:27:42;100259.84;;;3.85;100.00
58622;BME280;44389;51.578;5.456;2024-02-26T11:30:12;100265.84;;;3.85;100.00
58622;BME280;44389;51.578;5.456;2024-02-26T11:32:38;100268.47;;;3.87;100.00
58622;BME280;44389;51.578;5.456;2024-02-26T11:35:05;100261.78;;;3.89;100.00
58622;BME280;44389;51.578;5.456;2024-02-26T11:37:31;100262.78;;;3.92;100.00
58622;BME280;44389;51.578;5.456;2024-02-26T11:39:59;100267.81;;;3.91;100.00
58622;BME280;44389;51.578;5.456;2024-02-26T11:42:24;100263.59;;;3.91;100.00
58622;BME280;44389;51.578;5.456;2024-02-26T11:44:54;100259.28;;;3.90;100.00
58622;BME280;44389;51.578;5.456;2024-02-26T11:47:27;100266.16;;;3.91;100.00
58622;BME280;44389;51.578;5.456;2024-02-26T11:49:52;100274.59;;;3.90;100.00
58622;BME280;44389;51.578;5.456;2024-02-26T11:52:17;100270.28;;;3.89;100.00
58622;BME280;44389;51.578;5.456;2024-02-26T11:54:44;100266.88;;;3.89;100.00
58622;BME280;44389;51.578;5.456;2024-02-26T11:57:25;100264.47;;;3.92;100.00
58622;BME280;44389;51.578;5.456;2024-02-26T11:59:52;100275.31;;;3.88;100.00
58622;BME280;44389;51.578;5.456;2024-02-26T12:07:39;100280.41;;;3.88;100.00
58622;BME280;44389;51.578;5.456;2024-02-26T12:10:24;100282.59;;;3.98;100.00
58622;BME280;44389;51.578;5.456;2024-02-26T12:13:02;100290.69;;;3.89;100.00
58622;BME280;44389;51.578;5.456;2024-02-26T12:15:32;100297.53;;;3.90;100.00
58622;BME280;44389;51.578;5.456;2024-02-26T12:18:01;100298.31;;;3.89;100.00
58622;BME280;44389;51.578;5.456;2024-02-26T12:20:26;100295.78;;;3.89;100.00
58622;BME280;44389;51.578;5.456;2024-02-26T12:22:52;100313.56;;;3.88;100.00
58622;BME280;44389;51.578;5.456;2024-02-26T12:25:22;100310.13;;;3.87;100.00
58622;BME280;44389;51.578;5.456;2024-02-26T12:27:48;100309.38;;;3.90;100.00
58622;BME280;44389;51.578;5.456;2024-02-26T12:30:13;100318.72;;;3.89;100.00
58622;BME280;44389;51.578;5.456;2024-02-26T12:32:39;100327.34;;;3.91;100.00
58622;BME280;44389;51.578;5.456;2024-02-26T12:35:06;100330.75;;;3.92;100.00
58622;BME280;44389;51.578;5.456;2024-02-26T12:37:32;100338.38;;;3.92;100.00
58622;BME280;44389;51.578;5.456;2024-02-26T12:39:57;100336.69;;;3.92;100.00
58622;BME280;44389;51.578;5.456;2024-02-26T12:42:22;100334.16;;;3.92;100.00
58622;BME280;44389;51.578;5.456;2024-02-26T12:44:49;100344.34;;;3.92;100.00
58622;BME280;44389;51.578;5.456;2024-02-26T12:47:14;100341.00;;;3.93;100.00
58622;BME280;44389;51.578;5.456;2024-02-26T12:49:42;100344.34;;;3.92;100.00
58622;BME280;44389;51.578;5.456;2024-02-26T12:52:09;100352.91;;;3.93;100.00
58622;BME280;44389;51.578;5.456;2024-02-26T12:54:35;100357.25;;;3.95;100.00
58622;BME280;44389;51.578;5.456;2024-02-26T12:57:05;100357.94;;;3.91;100.00